Decoded Metar for ETSI (INGOLSTADT in GERMANY) (IATA:N/A) | Meteo·Mobile Aviation Weather
aviador You're here:

ETSI Decoded Metar

INGOLSTADT in GERMANY
Report Time2018-08-22 05:20:00
UTC Time2018-08-22 05:37:38
Flight Rules vfr VFR
Wind060° at 01 kt
W.Decomp.*RWY 07: 1.0 kt HW 0.2 kt LCW
W.Rank060° ranks 8
Current wind is below 060° avg. (4.6)
Visibility9999 m
Phenomena:N/A
Clouds:Few 300 Hf
Expected CloudBase > 1,200 ft AGL from Temp-Dew spread
CeilingNone
Temp17°C (ISA +4)
Dew Point14°C (83% RH)
QNH1019 hPa
Density Alt1,749 ft
Elevation1,214 ft
Report Wrong Elevation
Raw Report
METAR ETSI 220520Z 06001KT 9999 FEW300 17/14 Q1019 BLU+BLU+=

Extra information for ETSI:More info

Metar Taf Metar & Taf Last 4 Metars F.Rules Stats Wind Profile Meteogram Temp Stats Airport Information Weather charts Add Link Nearby VenuesMetar ALERT Operation Metar Decoded Social comments